Choei — JD3975 — position and weather

sailwx.info

Track history (hours):
 
Tides and Currents Weather Stations Pressure Air Temp Water Temp Dewpoint Dewpoint Depression Visibility Wind Speed Wind Dir Waves Ship Positions

Choei

Last reported at 2017-Dec-15 07:44 UTC. Time now 2017-Dec-16 07:21 UTC.
Position N 33°59' E 132°44'.

Length 76 m.

Type: Cargo ship. MMSI: 431007316.

Date/timePositionNaut miles runAvg speedWind from/ knotsBaromVisibWave heightAir tempDewpointWater temp
2017-Dec-15 07:44N 33°59' E 132°44'312.0
2017-Dec-15 07:29N 33°57' E 132°42'42 1.9
2017-Dec-14 09:20N 33°60' E 131°52'3 7.8
2017-Dec-14 09:00N 33°58' E 131°54'139 5.1
2017-Dec-13 05:49N 34°30' E 134°37'411.1
2017-Dec-13 05:29N 34°31' E 134°41'511.0
2017-Dec-13 05:00N 34°33' E 134°47'510.7
2017-Dec-13 04:30N 34°35' E 134°53'510.5
2017-Dec-13 04:00N 34°37' E 134°59'4 8.9
2017-Dec-13 03:30N 34°36' E 135°04'510.2
2017-Dec-13 03:00N 34°35' E 135°10'510.5
2017-Dec-13 02:30N 34°34' E 135°16'510.8
2017-Dec-13 02:00N 34°33' E 135°23'3 6.0
2017-Dec-13 01:30N 34°34' E 135°26'0 0.0
2017-Dec-13 00:57N 34°34' E 135°26'0 0.0
2017-Dec-13 00:30N 34°34' E 135°26'0 0.0
2017-Dec-13 00:00N 34°34' E 135°26'0 0.0
2017-Dec-12 23:21N 34°34' E 135°26'0 0.0
2017-Dec-12 23:00N 34°34' E 135°26'0 0.0
2017-Dec-12 22:30N 34°34' E 135°26'1 1.4
2017-Dec-12 21:59N 34°33' E 135°26'0 0.1
2017-Dec-12 21:29N 34°33' E 135°25'0 0.0
2017-Dec-12 20:59N 34°33' E 135°25'0 0.0
2017-Dec-12 20:29N 34°33' E 135°25'0 0.1
2017-Dec-12 19:59N 34°33' E 135°26'0 0.1
2017-Dec-12 19:29N 34°33' E 135°25'0 0.0
2017-Dec-12 18:59N 34°33' E 135°25'0 0.1
2017-Dec-12 18:29N 34°33' E 135°26'0 0.0
2017-Dec-12 17:59N 34°33' E 135°26'0 0.0
2017-Dec-12 17:29N 34°33' E 135°26'0 0.1
2017-Dec-12 16:59N 34°33' E 135°25'0 0.1
2017-Dec-12 16:29N 34°33' E 135°26'3 5.5
2017-Dec-12 16:00N 34°33' E 135°22'611.4
2017-Dec-12 15:30N 34°34' E 135°15'612.0
2017-Dec-12 15:00N 34°35' E 135°08'713.3
2017-Dec-12 14:30N 34°37' E 135°01'713.7
2017-Dec-12 14:00N 34°35' E 134°53'612.7
2017-Dec-12 13:30N 34°32' E 134°46'611.8
2017-Dec-12 13:00N 34°30' E 134°39'99 2.9
2017-Dec-11 03:12N 33°60' E 132°45'312.5
2017-Dec-11 02:56N 33°57' E 132°43'5211.5
2017-Dec-10 22:24N 33°48' E 131°41'512.5
2017-Dec-10 22:00N 33°49' E 131°35'712.6
2017-Dec-10 21:29N 33°50' E 131°27'612.7
2017-Dec-10 21:00N 33°51' E 131°20'612.8
2017-Dec-10 20:30N 33°53' E 131°12'612.7
2017-Dec-10 20:00N 33°56' E 131°06'611.7
2017-Dec-10 19:30N 33°58' E 130°60'611.1
2017-Dec-10 19:00N 33°54' E 130°55'5 9.3
2017-Dec-10 18:30N 33°58' E 130°53'611.5
2017-Dec-10 18:00N 34°04' E 130°51'611.6
2017-Dec-10 17:30N 34°10' E 130°49'612.0
2017-Dec-10 16:59N 34°14' E 130°44'4 8.2
2017-Dec-10 16:30N 34°17' E 130°47'4 7.5
2017-Dec-10 15:59N 34°21' E 130°48'  
Track history (hours):
 
Tides and Currents Weather Stations Pressure Air Temp Water Temp Dewpoint Dewpoint Depression Visibility Wind Speed Wind Dir Waves Ship Positions

Choei

Last reported at 2017-Dec-15 07:44 UTC. Time now 2017-Dec-16 07:21 UTC.
Position N 33°59' E 132°44'.

Length 76 m.

Type: Cargo ship. MMSI: 431007316.

Date/timePositionNaut miles runAvg speedWind from/ knotsBaromVisibWave heightAir tempDewpointWater temp
2017-Dec-15 07:44N 33°59' E 132°44'312.0
2017-Dec-15 07:29N 33°57' E 132°42'42 1.9
2017-Dec-14 09:20N 33°60' E 131°52'3 7.8
2017-Dec-14 09:00N 33°58' E 131°54'139 5.1
2017-Dec-13 05:49N 34°30' E 134°37'411.1
2017-Dec-13 05:29N 34°31' E 134°41'511.0
2017-Dec-13 05:00N 34°33' E 134°47'510.7
2017-Dec-13 04:30N 34°35' E 134°53'510.5
2017-Dec-13 04:00N 34°37' E 134°59'4 8.9
2017-Dec-13 03:30N 34°36' E 135°04'510.2
2017-Dec-13 03:00N 34°35' E 135°10'510.5
2017-Dec-13 02:30N 34°34' E 135°16'510.8
2017-Dec-13 02:00N 34°33' E 135°23'3 6.0
2017-Dec-13 01:30N 34°34' E 135°26'0 0.0
2017-Dec-13 00:57N 34°34' E 135°26'0 0.0
2017-Dec-13 00:30N 34°34' E 135°26'0 0.0
2017-Dec-13 00:00N 34°34' E 135°26'0 0.0
2017-Dec-12 23:21N 34°34' E 135°26'0 0.0
2017-Dec-12 23:00N 34°34' E 135°26'0 0.0
2017-Dec-12 22:30N 34°34' E 135°26'1 1.4
2017-Dec-12 21:59N 34°33' E 135°26'0 0.1
2017-Dec-12 21:29N 34°33' E 135°25'0 0.0
2017-Dec-12 20:59N 34°33' E 135°25'0 0.0
2017-Dec-12 20:29N 34°33' E 135°25'0 0.1
2017-Dec-12 19:59N 34°33' E 135°26'0 0.1
2017-Dec-12 19:29N 34°33' E 135°25'0 0.0
2017-Dec-12 18:59N 34°33' E 135°25'0 0.1
2017-Dec-12 18:29N 34°33' E 135°26'0 0.0
2017-Dec-12 17:59N 34°33' E 135°26'0 0.0
2017-Dec-12 17:29N 34°33' E 135°26'0 0.1
2017-Dec-12 16:59N 34°33' E 135°25'0 0.1
2017-Dec-12 16:29N 34°33' E 135°26'3 5.5
2017-Dec-12 16:00N 34°33' E 135°22'611.4
2017-Dec-12 15:30N 34°34' E 135°15'612.0
2017-Dec-12 15:00N 34°35' E 135°08'713.3
2017-Dec-12 14:30N 34°37' E 135°01'713.7
2017-Dec-12 14:00N 34°35' E 134°53'612.7
2017-Dec-12 13:30N 34°32' E 134°46'611.8
2017-Dec-12 13:00N 34°30' E 134°39'99 2.9
2017-Dec-11 03:12N 33°60' E 132°45'312.5
2017-Dec-11 02:56N 33°57' E 132°43'5211.5
2017-Dec-10 22:24N 33°48' E 131°41'512.5
2017-Dec-10 22:00N 33°49' E 131°35'712.6
2017-Dec-10 21:29N 33°50' E 131°27'612.7
2017-Dec-10 21:00N 33°51' E 131°20'612.8
2017-Dec-10 20:30N 33°53' E 131°12'612.7
2017-Dec-10 20:00N 33°56' E 131°06'611.7
2017-Dec-10 19:30N 33°58' E 130°60'611.1
2017-Dec-10 19:00N 33°54' E 130°55'5 9.3
2017-Dec-10 18:30N 33°58' E 130°53'611.5
2017-Dec-10 18:00N 34°04' E 130°51'611.6
2017-Dec-10 17:30N 34°10' E 130°49'612.0
2017-Dec-10 16:59N 34°14' E 130°44'4 8.2
2017-Dec-10 16:30N 34°17' E 130°47'4 7.5
2017-Dec-10 15:59N 34°21' E 130°48'  

Dump ship's entire track history